Time;durP1;ratioP1;P1;durP2;ratioP2;P2;SDS_P1;SDS_P2;PMS_P1;PMS_P2;Temp;Humidity;BMP_temperature;BMP_pressure;BME280_temperature;BME280_humidity;BME280_pressure;Samples;Min_cycle;Max_cycle;Signal;HPM_P1;HPM_P2
2022/03/11 00:00:59;;;;;;;14.73;7.05;;;4.40;68.10;;;;;;4905618;29;20044;-81
2022/03/11 00:08:23;;;;;;;13.13;6.97;;;4.30;68.90;;;;;;4866617;29;20043;-80
2022/03/11 00:10:52;;;;;;;13.52;6.93;;;4.20;69.40;;;;;;4851151;29;20045;-78
2022/03/11 00:13:27;;;;;;;14.25;7.30;;;4.20;69.70;;;;;;4866154;29;20056;-79
2022/03/11 00:15:54;;;;;;;15.15;7.25;;;4.10;70.20;;;;;;4866107;29;20045;-79
2022/03/11 00:18:20;;;;;;;13.65;6.45;;;4.10;70.70;;;;;;4866492;29;20049;-79
2022/03/11 00:20:56;;;;;;;13.40;7.30;;;4.00;70.70;;;;;;4863750;29;20042;-80
2022/03/11 00:23:34;;;;;;;12.02;6.80;;;4.00;70.90;;;;;;4863434;29;20061;-80
2022/03/11 00:29:52;;;;;;;13.00;6.68;;;4.10;71.40;;;;;;4845937;29;20069;-80
2022/03/11 00:32:21;;;;;;;11.77;6.70;;;4.00;71.60;;;;;;4836471;29;20042;-79
2022/03/11 00:35:32;;;;;;;15.27;6.93;;;4.00;71.90;;;;;;4841281;29;20054;-80
2022/03/11 00:37:58;;;;;;;15.98;7.13;;;4.00;72.20;;;;;;4843529;29;20041;-79
2022/03/11 00:40:24;;;;;;;12.38;6.85;;;3.90;72.80;;;;;;4854018;29;20029;-80
2022/03/11 00:42:50;;;;;;;17.70;7.80;;;3.90;73.80;;;;;;4864733;29;20033;-79
2022/03/11 00:45:19;;;;;;;13.88;7.55;;;3.80;73.60;;;;;;4864285;29;20025;-79
2022/03/11 00:48:10;;;;;;;12.45;7.60;;;3.80;73.90;;;;;;5201787;23;20062;-81
2022/03/11 00:50:36;;;;;;;12.45;6.85;;;3.60;74.20;;;;;;4930351;29;20035;-80
2022/03/11 00:53:08;;;;;;;12.85;7.43;;;3.60;74.50;;;;;;4959703;29;20110;-80
2022/03/11 00:55:35;;;;;;;13.07;7.40;;;3.60;74.80;;;;;;4927114;29;20051;-80
2022/03/11 00:58:01;;;;;;;14.52;6.97;;;3.60;74.70;;;;;;4927045;29;20027;-79
2022/03/11 01:04:03;;;;;;;13.55;7.75;;;3.50;75.10;;;;;;4944564;29;20254;-78
2022/03/11 01:06:28;;;;;;;17.13;8.00;;;3.50;75.50;;;;;;4959508;29;20082;-78
2022/03/11 01:12:37;;;;;;;17.52;8.30;;;3.50;76.10;;;;;;4960579;29;20546;-78
2022/03/11 01:15:31;;;;;;;18.08;8.90;;;3.60;76.60;;;;;;4946524;29;20067;-79
2022/03/11 01:17:59;;;;;;;17.73;9.90;;;3.60;76.90;;;;;;4928396;29;20027;-79
2022/03/11 01:20:28;;;;;;;17.17;9.65;;;3.60;77.50;;;;;;4939482;29;20043;-78
2022/03/11 01:22:54;;;;;;;20.70;9.93;;;3.70;77.70;;;;;;4909381;29;20326;-79
2022/03/11 01:25:20;;;;;;;18.67;10.48;;;3.70;77.40;;;;;;4911081;29;20144;-78
2022/03/11 01:27:45;;;;;;;18.73;10.35;;;3.70;77.80;;;;;;4911749;29;20019;-79
2022/03/11 01:30:16;;;;;;;18.50;9.93;;;3.60;77.30;;;;;;4911529;29;20043;-78
2022/03/11 01:32:42;;;;;;;21.30;10.18;;;3.50;77.20;;;;;;4943186;29;20028;-79
2022/03/11 01:35:09;;;;;;;16.85;9.75;;;3.40;77.80;;;;;;4911549;29;20035;-80
2022/03/11 01:37:36;;;;;;;18.02;9.95;;;3.30;77.90;;;;;;4910970;29;20030;-79
2022/03/11 01:40:03;;;;;;;17.67;9.18;;;3.30;78.30;;;;;;4911085;29;20024;-80
2022/03/11 01:42:29;;;;;;;20.20;10.80;;;3.20;78.40;;;;;;4910959;29;20036;-79
2022/03/11 01:45:10;;;;;;;18.33;10.10;;;3.20;79.00;;;;;;4911281;29;20249;-79
2022/03/11 01:47:36;;;;;;;17.92;10.35;;;3.20;78.60;;;;;;4942181;29;20324;-79
2022/03/11 01:50:25;;;;;;;18.08;10.45;;;3.10;78.50;;;;;;4942748;29;20278;-79
2022/03/11 01:52:54;;;;;;;20.83;10.68;;;3.10;79.70;;;;;;4931363;29;20317;-78
2022/03/11 01:56:19;;;;;;;19.67;11.43;;;3.00;79.70;;;;;;4932173;29;20030;-79
2022/03/11 01:58:50;;;;;;;18.80;10.77;;;3.00;80.20;;;;;;4947021;29;20357;-80
2022/03/11 02:01:23;;;;;;;19.35;11.10;;;3.00;80.20;;;;;;4930847;29;20027;-78
2022/03/11 02:03:52;;;;;;;19.60;11.38;;;3.00;80.60;;;;;;4931223;29;20027;-81
2022/03/11 02:06:20;;;;;;;21.27;11.02;;;3.10;80.50;;;;;;4915348;29;20042;-80
2022/03/11 02:08:46;;;;;;;21.85;11.02;;;3.00;80.20;;;;;;4931126;29;20027;-81
2022/03/11 02:11:12;;;;;;;23.77;11.20;;;3.00;81.10;;;;;;4931204;29;20030;-79
2022/03/11 02:13:46;;;;;;;24.45;13.50;;;2.90;80.70;;;;;;4915608;29;20099;-78
2022/03/11 02:16:23;;;;;;;21.45;11.57;;;3.00;81.40;;;;;;4931730;29;20055;-80
2022/03/11 02:18:51;;;;;;;20.15;12.07;;;2.90;81.70;;;;;;4931625;29;20027;-80
2022/03/11 02:21:22;;;;;;;21.02;10.90;;;2.90;81.30;;;;;;4947385;29;20027;-80
2022/03/11 02:24:07;;;;;;;20.17;11.77;;;2.80;81.00;;;;;;4931592;29;20061;-78
2022/03/11 02:26:38;;;;;;;20.83;11.68;;;2.80;81.30;;;;;;4947439;29;20217;-78
2022/03/11 02:29:29;;;;;;;21.30;12.35;;;2.80;81.70;;;;;;4951177;29;20131;-78
2022/03/11 02:31:55;;;;;;;21.05;12.40;;;2.70;82.90;;;;;;4947878;29;20027;-81
2022/03/11 02:34:52;;;;;;;20.90;11.60;;;2.70;82.50;;;;;;4962635;28;20046;-79
2022/03/11 02:37:18;;;;;;;21.77;12.30;;;2.70;82.20;;;;;;4870475;29;20189;-79
2022/03/11 02:39:44;;;;;;;23.63;13.05;;;2.60;82.90;;;;;;4870357;29;20036;-79
2022/03/11 02:42:10;;;;;;;24.45;13.32;;;2.60;83.40;;;;;;4854910;29;20041;-79
2022/03/11 02:44:36;;;;;;;23.77;13.77;;;2.60;83.60;;;;;;4870255;29;20085;-79
2022/03/11 02:47:02;;;;;;;23.42;13.23;;;2.70;83.60;;;;;;4855827;29;20033;-79
2022/03/11 02:49:28;;;;;;;22.73;13.27;;;2.70;83.60;;;;;;4854625;29;20052;-79
2022/03/11 02:51:59;;;;;;;24.65;13.85;;;2.60;83.90;;;;;;4870264;29;20044;-80
2022/03/11 02:54:25;;;;;;;25.40;14.68;;;2.50;84.10;;;;;;4854368;29;20060;-80
2022/03/11 02:56:50;;;;;;;24.77;14.80;;;2.50;84.60;;;;;;4854941;29;20051;-81
2022/03/11 02:59:19;;;;;;;;;;;2.50;84.20;;;;;;4855419;29;20382;-81
2022/03/11 03:01:47;;;;;;;28.08;14.32;;;2.50;84.20;;;;;;4854623;29;19907;-79
2022/03/11 03:04:16;;;;;;;24.33;15.13;;;2.40;84.00;;;;;;4854846;29;20037;-82
2022/03/11 03:06:42;;;;;;;22.65;13.52;;;2.40;83.70;;;;;;4853940;29;20401;-80
2022/03/11 03:09:08;;;;;;;24.63;14.60;;;2.30;83.30;;;;;;4854652;29;20343;-80
2022/03/11 03:11:37;;;;;;;28.60;15.40;;;2.30;83.60;;;;;;4850948;29;20040;-81
2022/03/11 03:14:21;;;;;;;26.20;15.10;;;2.30;84.00;;;;;;4894904;29;20070;-80
2022/03/11 03:16:47;;;;;;;27.80;14.35;;;2.20;83.80;;;;;;4911508;29;20087;-79
2022/03/11 03:19:13;;;;;;;22.98;14.27;;;2.20;83.70;;;;;;4927748;29;20043;-80
2022/03/11 03:21:42;;;;;;;27.15;15.57;;;2.10;84.30;;;;;;4926978;29;20027;-80
2022/03/11 03:24:07;;;;;;;26.17;15.02;;;2.10;84.70;;;;;;4927837;29;20110;-79
2022/03/11 03:26:33;;;;;;;25.25;15.02;;;2.10;85.10;;;;;;4927344;29;20031;-79
2022/03/11 03:28:59;;;;;;;26.17;15.80;;;2.00;85.30;;;;;;4907533;29;20071;-80
2022/03/11 03:31:25;;;;;;;29.83;16.30;;;2.00;86.00;;;;;;4922715;29;20044;-80
2022/03/11 03:33:57;;;;;;;29.90;15.90;;;2.00;85.50;;;;;;4923245;29;20349;-79
2022/03/11 03:36:23;;;;;;;31.48;17.52;;;2.00;85.90;;;;;;4923092;29;20055;-81
2022/03/11 03:38:49;;;;;;;31.33;15.70;;;2.10;85.90;;;;;;4923880;29;20335;-80
2022/03/11 03:41:14;;;;;;;28.15;16.55;;;2.00;85.50;;;;;;4924476;29;20120;-80
2022/03/11 03:43:40;;;;;;;32.05;16.73;;;2.00;85.50;;;;;;4910541;29;20032;-80
2022/03/11 03:46:07;;;;;;;27.00;16.05;;;2.20;85.30;;;;;;4923154;29;20048;-79
2022/03/11 03:48:34;;;;;;;28.30;16.30;;;2.10;85.30;;;;;;4906599;29;20353;-80
2022/03/11 03:51:00;;;;;;;27.92;16.55;;;2.10;85.70;;;;;;4923092;29;20115;-81
2022/03/11 03:54:10;;;;;;;26.80;15.77;;;2.00;85.20;;;;;;4906796;29;20323;-82
2022/03/11 03:56:42;;;;;;;30.02;16.80;;;2.10;85.40;;;;;;4906627;29;20036;-81
2022/03/11 03:59:15;;;;;;;28.15;15.90;;;2.10;85.20;;;;;;4910496;29;20035;-80
2022/03/11 04:01:43;;;;;;;28.23;16.27;;;2.00;85.10;;;;;;4926560;29;20024;-79
2022/03/11 04:07:19;;;;;;;30.15;16.02;;;1.90;85.50;;;;;;4943807;29;20443;-79
2022/03/11 04:09:45;;;;;;;29.63;16.70;;;1.90;85.70;;;;;;4927216;29;20099;-80
2022/03/11 04:12:13;;;;;;;28.73;15.50;;;1.90;85.00;;;;;;4935790;29;20031;-78
2022/03/11 04:14:41;;;;;;;29.00;16.50;;;1.80;85.10;;;;;;4954928;29;20065;-78
2022/03/11 04:17:07;;;;;;;27.73;15.55;;;1.80;85.20;;;;;;5115466;23;20063;-82
2022/03/11 04:19:33;;;;;;;29.63;16.30;;;1.80;85.00;;;;;;4939645;29;20201;-82
2022/03/11 04:21:59;;;;;;;23.60;15.15;;;1.70;84.80;;;;;;4952207;29;20445;-82
2022/03/11 04:24:25;;;;;;;28.08;15.90;;;1.70;85.00;;;;;;4927252;29;20031;-79
2022/03/11 04:26:52;;;;;;;27.60;15.93;;;1.60;85.20;;;;;;4927250;29;20230;-82
2022/03/11 04:29:18;;;;;;;32.03;16.23;;;1.60;85.40;;;;;;4942318;29;20036;-82
2022/03/11 04:31:44;;;;;;;31.17;17.42;;;1.50;85.70;;;;;;4943351;29;20043;-80
2022/03/11 04:34:10;;;;;;;30.38;15.98;;;1.50;85.90;;;;;;4926611;29;20020;-80
2022/03/11 04:36:38;;;;;;;36.17;17.92;;;1.40;86.00;;;;;;4926184;29;20032;-81
2022/03/11 04:39:08;;;;;;;29.58;16.83;;;1.40;85.60;;;;;;4927360;29;20027;-81
2022/03/11 04:41:53;;;;;;;30.73;16.33;;;1.40;86.00;;;;;;4925874;29;20090;-81
2022/03/11 04:44:19;;;;;;;30.70;15.45;;;1.40;85.70;;;;;;4926424;29;20310;-80
2022/03/11 04:46:59;;;;;;;31.50;15.77;;;1.40;85.50;;;;;;4925789;29;20086;-80
2022/03/11 04:49:36;;;;;;;30.45;15.43;;;1.40;85.40;;;;;;4926746;29;20266;-79
2022/03/11 04:52:13;;;;;;;29.27;14.60;;;1.40;84.90;;;;;;4912457;29;20035;-80
2022/03/11 04:54:49;;;;;;;28.02;15.25;;;1.40;84.20;;;;;;4912018;29;20098;-80
2022/03/11 04:57:23;;;;;;;28.50;15.35;;;1.30;84.30;;;;;;4928814;29;20345;-80
2022/03/11 05:04:34;;;;;;;;;;;;;;;;;;;;;
2022/03/11 05:07:52;;;;;;;24.38;12.43;;;1.40;82.20;;;;;;4896696;29;20395;-80
2022/03/11 05:10:45;;;;;;;18.80;11.10;;;1.40;81.90;;;;;;4927979;29;20210;-80
2022/03/11 05:17:20;;;;;;;22.38;11.45;;;1.40;80.50;;;;;;4928822;28;20148;-81
2022/03/11 05:20:15;;;;;;;20.67;11.20;;;1.40;79.50;;;;;;4929259;29;20040;-79
2022/03/11 05:26:08;;;;;;;20.92;10.40;;;1.20;79.90;;;;;;4929177;29;20035;-80
2022/03/11 05:28:47;;;;;;;21.92;11.43;;;1.30;79.20;;;;;;4911303;29;20035;-80
2022/03/11 05:31:51;;;;;;;21.52;10.35;;;1.20;79.00;;;;;;4914607;29;20056;-80
2022/03/11 05:34:38;;;;;;;17.92;9.95;;;1.20;78.60;;;;;;4913551;29;20034;-80
2022/03/11 05:37:08;;;;;;;17.45;9.98;;;1.20;78.70;;;;;;4927669;29;20032;-81
2022/03/11 05:40:41;;;;;;;20.25;10.57;;;1.20;78.60;;;;;;4927943;29;20091;-80
2022/03/11 05:47:37;;;;;;;19.17;9.60;;;1.10;77.70;;;;;;4851773;29;20041;-80
2022/03/11 05:50:28;;;;;;;16.45;9.02;;;1.10;77.90;;;;;;4853025;29;20032;-80
2022/03/11 05:52:54;;;;;;;18.70;9.63;;;1.10;77.10;;;;;;4851816;29;20033;-80
2022/03/11 05:55:20;;;;;;;17.90;9.75;;;1.00;77.00;;;;;;4851980;29;20040;-80
2022/03/11 05:58:17;;;;;;;19.20;9.55;;;1.00;77.40;;;;;;4851930;29;20037;-79
2022/03/11 06:01:12;;;;;;;14.75;7.50;;;0.90;77.40;;;;;;4850916;29;20141;-79
2022/03/11 06:06:55;;;;;;;16.65;8.18;;;1.00;76.50;;;;;;4804654;29;20057;-80
2022/03/11 06:09:23;;;;;;;16.55;8.68;;;1.10;76.20;;;;;;4782291;30;20218;-81
2022/03/11 06:12:01;;;;;;;16.20;8.40;;;1.10;75.70;;;;;;4785159;29;20043;-80
2022/03/11 06:14:29;;;;;;;16.42;8.77;;;1.20;75.40;;;;;;4782220;30;20031;-79
2022/03/11 06:17:22;;;;;;;17.08;8.52;;;1.20;75.30;;;;;;4785362;29;20055;-81
2022/03/11 06:19:48;;;;;;;19.55;8.73;;;1.30;74.60;;;;;;4796222;29;20031;-79
2022/03/11 06:22:53;;;;;;;18.50;8.57;;;1.40;74.50;;;;;;4815970;29;20031;-78
2022/03/11 06:25:22;;;;;;;14.00;8.13;;;1.40;73.80;;;;;;4833792;29;20065;-80
2022/03/11 06:27:47;;;;;;;17.02;7.88;;;1.50;73.20;;;;;;4832877;29;20058;-78
2022/03/11 06:30:14;;;;;;;16.52;8.48;;;1.60;72.50;;;;;;4832983;29;20152;-78
2022/03/11 06:32:44;;;;;;;13.07;8.18;;;1.60;71.80;;;;;;4832495;29;20042;-79
2022/03/11 06:35:14;;;;;;;15.38;8.00;;;1.70;71.60;;;;;;4860538;29;20162;-78
2022/03/11 06:38:10;;;;;;;17.15;7.88;;;1.80;71.60;;;;;;4888027;29;20064;-78
2022/03/11 06:40:37;;;;;;;14.88;7.28;;;1.90;71.00;;;;;;4888079;29;20049;-79
2022/03/11 06:43:03;;;;;;;15.52;7.50;;;2.00;70.30;;;;;;4905871;29;20444;-78
2022/03/11 06:45:29;;;;;;;18.38;7.47;;;2.10;70.70;;;;;;4946397;29;20125;-79
2022/03/11 06:47:58;;;;;;;15.93;7.53;;;2.20;69.10;;;;;;4929692;29;20353;-79
2022/03/11 06:50:25;;;;;;;14.60;7.88;;;2.20;69.00;;;;;;4930160;29;20040;-78
2022/03/11 06:53:09;;;;;;;14.10;7.50;;;2.30;68.50;;;;;;4913574;29;20038;-78
2022/03/11 06:55:35;;;;;;;13.73;7.38;;;2.40;67.90;;;;;;4929288;29;20119;-78
2022/03/11 06:58:01;;;;;;;15.48;6.78;;;2.40;68.40;;;;;;4929179;29;20024;-78
2022/03/11 07:00:54;;;;;;;15.30;6.65;;;2.50;67.60;;;;;;4946553;28;20099;-78
2022/03/11 07:03:57;;;;;;;11.90;6.68;;;2.60;68.00;;;;;;4946265;29;20035;-78
2022/03/11 07:06:27;;;;;;;17.25;7.05;;;2.60;66.90;;;;;;4929596;29;20035;-79
2022/03/11 07:08:53;;;;;;;11.75;6.65;;;2.70;66.30;;;;;;4929495;29;20035;-78
2022/03/11 07:15:06;;;;;;;13.48;6.50;;;2.90;66.30;;;;;;4906657;29;20453;-78
2022/03/11 07:17:33;;;;;;;13.52;6.78;;;3.00;65.80;;;;;;4891404;29;20072;-79
2022/03/11 07:20:14;;;;;;;13.30;6.63;;;3.10;65.70;;;;;;4907414;29;20060;-79
2022/03/11 07:22:47;;;;;;;13.93;6.47;;;3.10;65.20;;;;;;4891326;29;20045;-79
2022/03/11 07:25:17;;;;;;;13.85;6.70;;;3.30;65.30;;;;;;4891142;29;20032;-78
2022/03/11 07:27:43;;;;;;;12.77;6.45;;;3.40;64.60;;;;;;4906062;29;20024;-78
2022/03/11 07:30:13;;;;;;;15.63;6.65;;;3.40;64.50;;;;;;4891207;29;20049;-78
2022/03/11 07:32:39;;;;;;;11.75;5.65;;;3.40;64.70;;;;;;4890008;29;20049;-81
2022/03/11 07:35:17;;;;;;;12.40;6.70;;;3.50;64.10;;;;;;4908089;29;20070;-78
2022/03/11 07:37:43;;;;;;;11.77;6.28;;;3.70;63.90;;;;;;4896828;29;20357;-80
2022/03/11 07:40:13;;;;;;;14.60;6.38;;;3.70;63.40;;;;;;4890674;29;20024;-81
2022/03/11 07:42:42;;;;;;;15.82;6.93;;;3.70;63.40;;;;;;4890141;29;20319;-80
2022/03/11 07:45:11;;;;;;;12.40;5.97;;;3.60;63.30;;;;;;4905708;29;20045;-79
2022/03/11 07:47:42;;;;;;;;;;;3.70;63.10;;;;;;4920414;29;20329;-78
2022/03/11 07:50:10;;;;;;;10.68;5.65;;;3.80;63.20;;;;;;4966900;28;19917;-79
2022/03/11 07:58:10;;;;;;;14.95;7.22;;;4.00;62.80;;;;;;4947579;28;20363;-80
2022/03/11 08:00:38;;;;;;;12.73;6.13;;;4.20;62.90;;;;;;4928817;29;20198;-80
2022/03/11 08:03:04;;;;;;;9.90;6.63;;;4.20;62.30;;;;;;4924664;29;20028;-79
2022/03/11 08:09:18;;;;;;;;;;;4.40;62.70;;;;;;4910093;29;20024;-80
2022/03/11 08:11:45;;;;;;;12.82;6.78;;;4.50;62.20;;;;;;4907694;29;19967;-80
2022/03/11 08:14:13;;;;;;;13.43;6.63;;;4.60;62.10;;;;;;4906510;29;20036;-79
2022/03/11 08:16:39;;;;;;;12.73;6.40;;;4.80;61.90;;;;;;4930741;29;20043;-80
2022/03/11 08:19:09;;;;;;;14.32;7.22;;;4.90;61.40;;;;;;4944535;29;20035;-79
2022/03/11 08:21:58;;;;;;;11.30;6.82;;;5.00;61.40;;;;;;4927662;29;20071;-80
2022/03/11 08:24:28;;;;;;;13.35;6.55;;;5.10;61.00;;;;;;4936725;29;20103;-78
2022/03/11 08:27:14;;;;;;;12.93;6.78;;;5.20;60.90;;;;;;4942829;29;20167;-77
2022/03/11 08:29:40;;;;;;;17.20;7.03;;;5.30;60.80;;;;;;4942591;29;20228;-79
2022/03/11 08:32:16;;;;;;;13.57;7.28;;;5.50;60.30;;;;;;4942998;29;20048;-78
2022/03/11 08:34:42;;;;;;;13.85;7.05;;;5.50;60.90;;;;;;4951815;29;20038;-78
2022/03/11 08:37:08;;;;;;;10.80;6.55;;;5.70;60.60;;;;;;4951132;28;20035;-78
2022/03/11 08:39:34;;;;;;;17.42;6.78;;;5.60;60.30;;;;;;4938389;28;20035;-78
2022/03/11 08:41:59;;;;;;;15.40;6.80;;;5.70;60.30;;;;;;4956395;28;20031;-80
2022/03/11 08:44:25;;;;;;;12.77;7.10;;;5.80;60.00;;;;;;4936264;29;20345;-81
2022/03/11 08:46:51;;;;;;;14.05;7.30;;;5.90;59.50;;;;;;4945717;29;20039;-79
2022/03/11 08:49:17;;;;;;;14.65;7.10;;;5.90;60.00;;;;;;4963580;29;20027;-79
2022/03/11 08:51:43;;;;;;;14.15;7.10;;;6.00;59.70;;;;;;4944592;29;20237;-80
2022/03/11 08:54:10;;;;;;;12.82;7.13;;;6.10;59.60;;;;;;4945951;29;20035;-79
2022/03/11 08:56:35;;;;;;;13.27;7.00;;;6.20;59.50;;;;;;4939214;29;20058;-80
2022/03/11 08:59:05;;;;;;;12.20;6.35;;;6.30;59.90;;;;;;4943193;29;20210;-81
2022/03/11 09:01:34;;;;;;;13.27;7.13;;;6.40;59.50;;;;;;4942352;29;20305;-80
2022/03/11 09:04:01;;;;;;;13.55;7.10;;;6.50;59.60;;;;;;4926491;29;20034;-80
2022/03/11 09:06:27;;;;;;;15.13;7.07;;;6.50;59.30;;;;;;4926631;29;20035;-80
2022/03/11 09:08:53;;;;;;;14.27;6.97;;;6.50;58.80;;;;;;4943865;29;20031;-78
2022/03/11 09:11:20;;;;;;;15.50;7.53;;;6.50;58.90;;;;;;4926698;29;20039;-80
2022/03/11 09:13:47;;;;;;;11.75;7.32;;;6.50;59.10;;;;;;4927139;29;20026;-81
2022/03/11 09:16:16;;;;;;;13.30;7.43;;;6.60;59.10;;;;;;4926632;29;20342;-80
2022/03/11 09:18:42;;;;;;;13.13;7.32;;;6.70;59.70;;;;;;4926605;29;20111;-81
2022/03/11 09:21:08;;;;;;;13.65;7.72;;;6.90;59.70;;;;;;4927013;29;20365;-80
2022/03/11 09:23:33;;;;;;;12.32;7.80;;;7.10;58.60;;;;;;4927116;29;20031;-80
2022/03/11 09:25:59;;;;;;;13.30;7.88;;;7.10;58.00;;;;;;4926197;29;20039;-79
2022/03/11 09:28:25;;;;;;;12.63;7.18;;;7.10;58.00;;;;;;4926602;29;20044;-80
2022/03/11 09:30:52;;;;;;;14.82;8.02;;;7.10;58.10;;;;;;4927037;29;20031;-80
2022/03/11 09:33:20;;;;;;;13.70;7.15;;;7.20;58.30;;;;;;4927762;29;20024;-79
2022/03/11 09:36:04;;;;;;;15.20;7.70;;;7.20;58.40;;;;;;4943093;29;20313;-79
2022/03/11 09:38:31;;;;;;;13.82;7.47;;;7.10;58.00;;;;;;4943559;29;20055;-79
2022/03/11 09:41:00;;;;;;;16.83;8.63;;;7.20;58.40;;;;;;4942619;29;20066;-79
2022/03/11 09:43:26;;;;;;;13.80;7.38;;;7.30;58.20;;;;;;4944120;29;20179;-78
2022/03/11 09:45:53;;;;;;;15.18;7.68;;;7.30;58.30;;;;;;4942385;29;20040;-79
2022/03/11 09:48:19;;;;;;;12.57;7.43;;;7.40;58.10;;;;;;4877085;29;20043;-78
2022/03/11 09:50:48;;;;;;;15.15;7.97;;;7.40;58.10;;;;;;4892205;29;20020;-80
2022/03/11 09:53:13;;;;;;;15.57;7.43;;;7.60;58.20;;;;;;4893313;29;20035;-80
2022/03/11 09:55:40;;;;;;;17.13;8.13;;;7.70;58.00;;;;;;4892642;29;20020;-78
2022/03/11 10:02:15;;;;;;;17.67;7.22;;;7.90;58.10;;;;;;4823423;29;20042;-78
2022/03/11 10:08:38;;;;;;;15.02;7.70;;;8.40;57.40;;;;;;4815845;29;20048;-78
2022/03/11 10:11:18;;;;;;;12.23;7.35;;;8.60;57.10;;;;;;4816362;29;20350;-79
2022/03/11 10:14:03;;;;;;;15.88;7.60;;;8.70;56.50;;;;;;4815019;29;20042;-77
2022/03/11 10:16:31;;;;;;;13.68;8.07;;;8.80;56.50;;;;;;4820026;29;20047;-78
2022/03/11 10:19:13;;;;;;;18.40;8.18;;;8.90;56.40;;;;;;4804815;29;20057;-78
2022/03/11 10:22:22;;;;;;;12.02;7.70;;;9.00;56.30;;;;;;4817418;29;20066;-79
2022/03/11 10:24:48;;;;;;;12.90;7.38;;;9.10;55.60;;;;;;4801533;29;20321;-79
2022/03/11 10:27:25;;;;;;;13.98;7.72;;;9.20;56.00;;;;;;4799831;29;20038;-79
2022/03/11 10:29:53;;;;;;;13.60;8.07;;;9.20;55.90;;;;;;4814670;29;20092;-77
2022/03/11 10:32:23;;;;;;;13.83;7.50;;;9.30;55.70;;;;;;4784104;29;20039;-75
2022/03/11 10:34:49;;;;;;;13.35;7.72;;;9.50;57.00;;;;;;4799205;29;20387;-77
2022/03/11 10:37:16;;;;;;;14.52;7.93;;;9.50;55.40;;;;;;4814852;29;20034;-75
2022/03/11 10:39:47;;;;;;;12.50;7.05;;;9.70;56.80;;;;;;4914311;29;20227;-78
2022/03/11 10:42:23;;;;;;;14.73;7.72;;;9.80;55.60;;;;;;4910546;29;20040;-77
2022/03/11 10:45:04;;;;;;;13.93;7.60;;;10.00;55.10;;;;;;4927051;29;20446;-78
2022/03/11 10:47:36;;;;;;;12.57;7.30;;;10.20;55.80;;;;;;4926239;29;20064;-78
2022/03/11 10:50:13;;;;;;;15.27;8.20;;;10.40;54.80;;;;;;4927187;29;20084;-77
2022/03/11 10:52:44;;;;;;;15.27;7.45;;;10.60;54.20;;;;;;4926206;29;20067;-78
2022/03/11 10:55:28;;;;;;;15.50;8.32;;;10.70;53.90;;;;;;4926368;29;20235;-78
2022/03/11 10:57:56;;;;;;;13.20;8.25;;;10.90;54.20;;;;;;4925524;29;20059;-78
2022/03/11 11:00:23;;;;;;;13.90;8.07;;;11.00;53.30;;;;;;4925387;29;20362;-78
2022/03/11 11:02:52;;;;;;;14.65;7.90;;;11.20;53.40;;;;;;4912468;29;20032;-78
2022/03/11 11:05:18;;;;;;;16.73;8.38;;;11.40;53.20;;;;;;4929084;29;20019;-78
2022/03/11 11:07:45;;;;;;;15.90;8.18;;;12.00;52.90;;;;;;4946523;29;20087;-77
2022/03/11 11:10:12;;;;;;;14.30;7.80;;;12.70;51.00;;;;;;4928355;29;20054;-77
2022/03/11 11:12:40;;;;;;;17.17;8.27;;;13.30;49.90;;;;;;4928749;29;20032;-78
2022/03/11 11:15:07;;;;;;;16.40;8.50;;;13.90;49.30;;;;;;4928156;29;20026;-80
2022/03/11 11:17:37;;;;;;;14.07;8.27;;;14.50;48.90;;;;;;4929123;29;20043;-78
2022/03/11 11:20:04;;;;;;;13.07;8.55;;;15.20;48.50;;;;;;4928363;29;20306;-78
2022/03/11 11:22:31;;;;;;;11.30;8.18;;;15.80;47.00;;;;;;4929921;29;20027;-77
2022/03/11 11:25:01;;;;;;;13.88;8.68;;;16.60;46.80;;;;;;4929241;29;20086;-78
2022/03/11 11:27:30;;;;;;;14.85;7.93;;;17.10;46.00;;;;;;4945870;29;20024;-78
2022/03/11 11:29:57;;;;;;;12.95;8.02;;;17.80;45.20;;;;;;4928124;29;20027;-78
2022/03/11 11:32:23;;;;;;;12.55;7.88;;;18.30;44.30;;;;;;4946701;29;20051;-77
2022/03/11 11:34:49;;;;;;;11.40;7.88;;;18.70;43.20;;;;;;4933231;29;20034;-78
2022/03/11 11:37:38;;;;;;;12.35;7.88;;;19.40;43.20;;;;;;4957912;29;20023;-78
2022/03/11 11:40:26;;;;;;;10.80;7.88;;;19.90;42.10;;;;;;4958426;29;20063;-79
2022/03/11 11:43:13;;;;;;;11.27;7.70;;;21.20;42.10;;;;;;4936481;29;20038;-78
2022/03/11 11:45:51;;;;;;;11.23;7.80;;;21.30;41.00;;;;;;4930088;29;20068;-78
2022/03/11 11:48:43;;;;;;;11.25;7.97;;;21.90;40.90;;;;;;4928585;29;20047;-78
2022/03/11 11:51:11;;;;;;;8.95;7.15;;;22.40;40.20;;;;;;4936578;29;20058;-78
2022/03/11 11:53:42;;;;;;;10.80;7.30;;;23.00;39.80;;;;;;4929531;29;20111;-79
2022/03/11 11:56:33;;;;;;;11.52;7.82;;;23.40;39.80;;;;;;4927849;29;20294;-79
2022/03/11 11:59:02;;;;;;;9.20;7.90;;;23.60;39.00;;;;;;4924526;29;20103;-77
2022/03/11 12:01:39;;;;;;;;;;;24.20;39.00;;;;;;4924613;29;20036;-79
2022/03/11 12:04:34;;;;;;;10.35;6.95;;;24.30;38.60;;;;;;4927506;29;19978;-78
2022/03/11 12:07:04;;;;;;;12.05;7.57;;;24.30;38.70;;;;;;4926675;29;20318;-79
2022/03/11 12:12:09;;;;;;;10.15;7.53;;;25.30;38.20;;;;;;4927298;29;20076;-79
2022/03/11 12:15:05;;;;;;;10.18;7.90;;;26.00;37.80;;;;;;4928777;29;20024;-79
2022/03/11 12:18:03;;;;;;;10.35;7.80;;;27.00;37.50;;;;;;4931718;29;20040;-79
2022/03/11 12:20:48;;;;;;;11.38;7.32;;;26.40;37.70;;;;;;4927305;29;20071;-80
2022/03/11 12:23:14;;;;;;;10.35;7.82;;;26.50;37.50;;;;;;4944777;29;20062;-79
2022/03/11 12:25:46;;;;;;;12.55;7.82;;;26.90;36.80;;;;;;4943164;29;20258;-79
2022/03/11 12:28:17;;;;;;;15.57;8.10;;;26.70;36.80;;;;;;4943199;29;20313;-78
2022/03/11 12:30:52;;;;;;;11.50;8.02;;;26.40;36.80;;;;;;4943533;29;20046;-78
2022/03/11 12:33:26;;;;;;;10.13;7.57;;;26.90;36.90;;;;;;4944766;29;20054;-77
2022/03/11 12:35:59;;;;;;;10.20;7.93;;;27.20;36.70;;;;;;4942677;29;20031;-79
2022/03/11 12:38:27;;;;;;;10.38;7.32;;;28.30;36.20;;;;;;4944631;29;20337;-79
2022/03/11 12:40:54;;;;;;;9.30;7.40;;;27.90;36.30;;;;;;4944281;29;20043;-79
2022/03/11 12:43:24;;;;;;;10.38;8.13;;;27.70;36.90;;;;;;4928017;29;20055;-80
2022/03/11 12:46:09;;;;;;;12.77;8.00;;;28.20;36.00;;;;;;4929397;29;20036;-79
2022/03/11 12:48:41;;;;;;;9.52;7.97;;;27.90;36.40;;;;;;4943854;29;20336;-79
2022/03/11 12:51:23;;;;;;;10.38;7.65;;;28.10;35.90;;;;;;4944084;29;20421;-79
2022/03/11 12:53:53;;;;;;;12.00;8.15;;;29.40;35.80;;;;;;4911389;29;20042;-78
2022/03/11 12:56:22;;;;;;;9.52;7.75;;;29.50;35.30;;;;;;4926706;29;20318;-80
2022/03/11 12:59:08;;;;;;;10.43;8.02;;;29.00;35.90;;;;;;4925544;29;20027;-80
2022/03/11 13:01:42;;;;;;;10.00;8.20;;;29.70;35.60;;;;;;4910902;29;20067;-80
2022/03/11 13:04:07;;;;;;;8.93;6.63;;;29.60;35.50;;;;;;4933534;29;20028;-79
2022/03/11 13:06:33;;;;;;;9.52;7.93;;;29.70;36.10;;;;;;4925192;29;20051;-79
2022/03/11 13:09:02;;;;;;;9.63;7.60;;;29.80;35.20;;;;;;4933507;29;20035;-80
2022/03/11 13:11:29;;;;;;;11.07;8.10;;;29.80;35.60;;;;;;4961799;29;20099;-80
2022/03/11 13:14:02;;;;;;;12.32;8.18;;;29.80;35.00;;;;;;4946210;29;20107;-79
2022/03/11 13:17:07;;;;;;;9.48;7.60;;;30.60;35.00;;;;;;4948677;29;20051;-81
2022/03/11 13:19:32;;;;;;;10.05;7.78;;;31.00;35.70;;;;;;4948515;29;20058;-79
2022/03/11 13:22:14;;;;;;;9.38;7.50;;;31.70;34.70;;;;;;4949822;29;20023;-79
2022/03/11 13:24:40;;;;;;;9.93;7.80;;;32.30;34.70;;;;;;4948441;29;20023;-79
2022/03/11 13:27:09;;;;;;;9.25;7.60;;;32.30;34.90;;;;;;4944496;29;20028;-80
2022/03/11 13:29:41;;;;;;;8.95;7.40;;;32.30;34.90;;;;;;4930441;29;20028;-80
2022/03/11 13:32:07;;;;;;;9.48;7.57;;;32.20;34.50;;;;;;4946549;29;20046;-80
2022/03/11 13:34:35;;;;;;;11.27;8.00;;;32.90;34.20;;;;;;4915772;29;20210;-81
2022/03/11 13:37:26;;;;;;;10.70;8.63;;;32.50;34.70;;;;;;4929997;29;20032;-80
2022/03/11 13:40:11;;;;;;;8.77;7.88;;;33.30;34.30;;;;;;4947643;29;20338;-81
2022/03/11 13:42:37;;;;;;;9.90;7.68;;;33.00;34.00;;;;;;4947011;29;20082;-80
2022/03/11 13:45:07;;;;;;;11.27;8.40;;;32.60;33.80;;;;;;4945440;29;20055;-80
2022/03/11 13:47:33;;;;;;;9.65;7.18;;;32.40;34.00;;;;;;4930204;29;20223;-80
2022/03/11 13:50:07;;;;;;;12.27;8.45;;;31.30;34.10;;;;;;4944914;29;20081;-80
2022/03/11 13:52:45;;;;;;;10.25;7.90;;;31.20;34.80;;;;;;4946991;29;20031;-81
2022/03/11 13:55:11;;;;;;;15.10;8.20;;;31.60;34.40;;;;;;4929565;29;20032;-79
2022/03/11 13:57:41;;;;;;;10.73;8.20;;;31.60;34.50;;;;;;4921518;29;20036;-80
2022/03/11 14:00:36;;;;;;;10.25;8.02;;;31.60;34.40;;;;;;4944176;29;20152;-78
2022/03/11 14:03:23;;;;;;;17.02;8.30;;;31.90;34.40;;;;;;4926820;29;20039;-80
2022/03/11 14:05:53;;;;;;;12.02;7.63;;;32.60;34.30;;;;;;4946296;29;20074;-78
2022/03/11 14:08:26;;;;;;;10.07;7.50;;;32.70;34.10;;;;;;4930847;29;20098;-80
2022/03/11 14:11:09;;;;;;;9.60;7.72;;;32.50;34.10;;;;;;4949083;29;20368;-80
2022/03/11 14:13:41;;;;;;;9.95;7.88;;;32.00;34.80;;;;;;4949843;29;20038;-81
2022/03/11 14:16:10;;;;;;;11.63;8.13;;;32.10;34.70;;;;;;4937917;29;20048;-80